UBBB/BAK METAR and TAF weather

Enter ICAO airport designator
Station Type Date Time Source
UBBB METAR 2020/01/26 04:00 UTC NOAA

UBBB 260400Z 16002KT CAVOK 02/M04 Q1018 R88/CLRD// NOSIG


Station Type Date Time Source
UBBB Decoded METAR 2020/01/26 04:00 UTC NOAA

Baku / Bine Airport, Azerbaijan (UBBB) 40-27N 050-04E -1M
Jan 25, 2020 - 11:00 PM EST / 2020.01.26 0400 UTC
Wind: from the SSE (160 degrees) at 2 MPH (2 KT):0
Visibility: greater than 7 mile(s):0
Temperature: 35 F (2 C)
Dew Point: 24 F (-4 C)
Relative Humidity: 64%
Pressure (altimeter): 30.06 in. Hg (1018 hPa)
ob: UBBB 260400Z 16002KT CAVOK 02/M04 Q1018 R88/CLRD// NOSIG
cycle: 4

Station Type Date Time Source
UBBB TAF 2020/01/25 18:18 UTC NOAA

TAF TAF UBBB 251716Z 2518/2618 21018G28KT CAVOK TX07/2611Z TN03/2602Z
TEMPO 2522/2602 24014KT SCT015 SCT100
TEMPO 2602/2605 27012KT SCT012
BECMG 2605/2607 33012KT 9999 SCT020 BKN100

Example: see airport list